KPMD/PMD METAR and TAF weather

Enter ICAO airport designator
Station Type Date Time Source
KPMD METAR 2019/08/18 08:53 UTC NOAA

KPMD 180853Z AUTO 20008KT 10SM CLR 23/M01 A2988 RMK AO2 SLP084 T02281006 58003


Station Type Date Time Source
KPMD Decoded METAR 2019/08/18 08:53 UTC NOAA

Station name not available
Aug 18, 2019 - 04:53 AM EDT / 2019.08.18 0853 UTC
Wind: from the SSW (200 degrees) at 9 MPH (8 KT):0
Visibility: 10 mile(s):0
Sky conditions: clear
Temperature: 73.0 F (22.8 C)
Dew Point: 30.9 F (-0.6 C)
Relative Humidity: 21%
Pressure (altimeter): 29.88 in. Hg (1011 hPa)
Pressure tendency: 0.01 inches (0.3 hPa) lower than three hours ago
ob: KPMD 180853Z AUTO 20008KT 10SM CLR 23/M01 A2988 RMK AO2 SLP084 T02281006 58003
cycle: 9

Station Type Date Time Source
KPMD TAF 2019/08/18 06:30 UTC NOAA

TAF KPMD 180528Z 1806/1906 22008KT P6SM SKC
FM181300 VRB03KT P6SM SKC
FM181900 24012KT P6SM SKC
FM182200 24017G25KT P6SM SKC
FM190300 24012KT P6SM SKC

Example: see airport list